DWN weather

CLOSED Downtown Airpark
Oklahoma City, Oklahoma, United States

Public forecast

Using degrees Fahrenheit for public forecast. Weather courtesy of forecast.io.

Closest aviation weather report (METAR) to Downtown Airpark

Closest report is Will Rogers World Airport, 4.7 nm (8.7 km) SW. Retrieved 2020/07/07 01:52 UTC (31 minutes ago):

KOKC 070152Z 21003KT 10SM FEW080 FEW180 FEW250 24/20 A2993 RMK AO2 WSHFT 0039 SLP120 T02390200

Closest aviation forecast (TAF) to Downtown Airpark

Closest forecast is Will Rogers World Airport, 4.7 nm (8.7 km) SW. Retrieved 2020-07-07 00:22 UTC (2 hours ago):

TAF KOKC 062320Z 0700/0724 12007KT P6SM SCT250 FM071500 14010KT P6SM SCT040 SCT250